Cyrus, Kentucky
Current Conditions -  °F | °C
As of 11:53 AM on Thursday 30 Oct 2014 (Local Time) from KJKL Reporting Station
Broken Clouds Broken Clouds  
Wind Chill: 45°   Ceiling: 3300
Heat Index: 48°   Visibility: 10mi
Dew Point: 33°   Wind: 6mph
Humidity: 56%   Direction: 150°SSE
Pressure: 30.14"   Gusts: NA
Location:  37.7261°N, 83.0786°W
Report Text: KJKL 301553Z AUTO 15005KT 10SM BKN033 09/01 A3014 RMK AO2 SLP207 T00890006
Loading
Personal Weather Stations






























Interactive Weather Map
Tropical Storm Tracking
New forecast layout! Learn more

10-Day Weather Forecast

Advertisements
Track Severe Weather on mobile